createdAt,value
2023-07-24T00:00:46.842Z,5.97
2023-07-24T00:02:21.511Z,6.05
2023-07-24T00:03:55.810Z,5.30
2023-07-24T00:05:28.045Z,6.22
2023-07-24T00:07:02.430Z,5.85
2023-07-24T00:08:34.627Z,6.35
2023-07-24T00:10:08.536Z,5.60
2023-07-24T00:11:40.794Z,6.00
2023-07-24T00:13:14.273Z,5.03
2023-07-24T00:14:46.731Z,5.95
2023-07-24T00:16:20.056Z,5.60
2023-07-24T00:17:53.704Z,6.05
2023-07-24T00:19:27.376Z,5.50
2023-07-24T00:21:00.518Z,5.60
2023-07-24T00:22:33.004Z,5.40
2023-07-24T00:24:06.666Z,5.55
2023-07-24T00:25:39.054Z,5.22
2023-07-24T00:27:12.269Z,6.45
2023-07-24T00:28:46.510Z,5.82
2023-07-24T00:30:20.299Z,5.93
2023-07-24T00:31:53.748Z,6.10
2023-07-24T00:33:27.408Z,5.65
2023-07-24T00:35:01.001Z,5.97
2023-07-24T00:36:33.454Z,6.05
2023-07-24T00:38:07.044Z,5.32
2023-07-24T00:39:40.254Z,5.68
2023-07-24T00:41:12.393Z,5.28
2023-07-24T00:42:49.576Z,6.18
2023-07-24T00:44:21.987Z,5.70
2023-07-24T00:45:56.874Z,5.40
2023-07-24T00:47:30.325Z,5.53
2023-07-24T00:49:06.034Z,5.53
2023-07-24T00:50:40.374Z,5.57
2023-07-24T00:52:13.823Z,5.60
2023-07-24T00:53:48.949Z,6.05
2023-07-24T00:55:21.434Z,6.15
2023-07-24T00:56:55.203Z,6.07
2023-07-24T00:58:27.806Z,5.43
2023-07-24T01:00:05.064Z,5.38
2023-07-24T01:01:39.092Z,5.55
2023-07-24T01:03:13.856Z,5.75
2023-07-24T01:04:48.512Z,5.65
2023-07-24T01:06:21.701Z,6.15
2023-07-24T01:07:54.149Z,5.35
2023-07-24T01:09:27.819Z,5.47
2023-07-24T01:11:05.170Z,6.05
2023-07-24T01:12:45.125Z,5.95
2023-07-24T01:14:24.366Z,5.05
2023-07-24T01:16:09.110Z,4.60
2023-07-24T01:17:46.779Z,5.38
2023-07-24T01:19:39.060Z,5.22
2023-07-24T01:21:17.523Z,6.18
2023-07-24T01:23:02.662Z,6.22
2023-07-24T01:24:44.052Z,5.38
2023-07-24T01:26:18.683Z,5.80
2023-07-24T01:27:51.916Z,6.22
2023-07-24T01:30:58.750Z,5.93
2023-07-24T01:32:32.717Z,6.20
2023-07-24T01:34:04.960Z,5.85
2023-07-24T01:35:40.420Z,6.53
2023-07-24T01:37:14.222Z,5.43
2023-07-24T01:38:49.683Z,5.93
2023-07-24T01:40:23.306Z,6.38
2023-07-24T01:41:58.442Z,6.05
2023-07-24T01:43:33.284Z,5.53
2023-07-24T01:45:07.013Z,6.32
2023-07-24T01:46:40.557Z,5.18
2023-07-24T01:48:12.878Z,6.05
2023-07-24T01:49:46.129Z,5.07
2023-07-24T01:51:18.635Z,5.53
2023-07-24T01:52:52.025Z,5.97
2023-07-24T01:54:24.284Z,5.65
2023-07-24T01:55:57.959Z,6.03
2023-07-24T01:57:31.720Z,5.80
2023-07-24T01:59:04.980Z,5.95
2023-07-24T02:00:37.285Z,6.10
2023-07-24T02:02:10.896Z,6.70
2023-07-24T02:03:44.300Z,5.82
2023-07-24T02:05:17.920Z,6.03
2023-07-24T02:06:51.283Z,5.20
2023-07-24T02:08:24.805Z,6.30
2023-07-24T02:09:57.345Z,6.18
2023-07-24T02:11:30.673Z,5.55
2023-07-24T02:13:04.816Z,5.90
2023-07-24T02:14:38.034Z,6.50
2023-07-24T02:16:10.481Z,5.72
2023-07-24T02:17:44.558Z,5.53
2023-07-24T02:19:16.905Z,5.93
2023-07-24T02:20:53.569Z,5.90
2023-07-24T02:22:27.142Z,5.32
2023-07-24T02:24:00.748Z,5.97
2023-07-24T02:25:33.965Z,5.75
2023-07-24T02:27:08.635Z,4.97
2023-07-24T02:28:43.549Z,6.03
2023-07-24T02:30:16.796Z,5.35
2023-07-24T02:31:50.073Z,5.85
2023-07-24T02:33:22.459Z,5.82
2023-07-24T02:34:56.089Z,4.97
2023-07-24T02:36:28.677Z,6.18
2023-07-24T02:38:02.081Z,6.20
2023-07-24T02:39:34.591Z,5.40
2023-07-24T02:41:07.796Z,5.38
2023-07-24T02:42:41.787Z,6.22
2023-07-24T02:44:16.686Z,6.72
2023-07-24T02:45:49.868Z,6.95
2023-07-24T02:47:22.613Z,6.57
2023-07-24T02:48:56.329Z,6.85
2023-07-24T02:50:29.383Z,5.38
2023-07-24T02:52:02.702Z,6.07
2023-07-24T02:53:35.614Z,6.15
2023-07-24T02:55:09.659Z,6.60
2023-07-24T02:56:41.870Z,6.65
2023-07-24T02:58:15.814Z,5.85
2023-07-24T02:59:49.506Z,5.78
2023-07-24T03:01:22.731Z,6.55
2023-07-24T03:02:55.099Z,6.35
2023-07-24T03:04:28.750Z,5.53
2023-07-24T03:06:02.882Z,6.03
2023-07-24T03:07:35.104Z,6.57
2023-07-24T03:09:08.405Z,6.25
2023-07-24T03:10:42.692Z,6.07
2023-07-24T03:12:16.173Z,6.07
2023-07-24T03:13:49.539Z,5.82
2023-07-24T03:15:24.993Z,6.07
2023-07-24T03:16:57.268Z,6.35
2023-07-24T03:18:30.818Z,6.25
2023-07-24T03:20:10.595Z,5.90
2023-07-24T03:21:43.862Z,6.13
2023-07-24T03:23:16.426Z,5.57
2023-07-24T03:24:49.748Z,6.68
2023-07-24T03:26:21.973Z,5.60
2023-07-24T03:27:55.216Z,6.63
2023-07-24T03:29:27.471Z,5.80
2023-07-24T03:31:02.585Z,6.28
2023-07-24T03:32:34.931Z,6.13
2023-07-24T03:34:08.927Z,5.15
2023-07-24T03:35:42.299Z,5.78
2023-07-24T03:37:15.678Z,5.72
2023-07-24T03:38:47.921Z,5.38
2023-07-24T03:40:21.067Z,6.43
2023-07-24T03:41:54.504Z,6.00
2023-07-24T03:43:26.942Z,6.13
2023-07-24T03:45:00.279Z,6.18
2023-07-24T03:46:36.973Z,5.82
2023-07-24T03:48:10.704Z,6.38
2023-07-24T03:49:43.373Z,6.20
2023-07-24T03:51:16.566Z,5.68
2023-07-24T03:52:48.803Z,6.03
2023-07-24T03:54:22.444Z,6.18
2023-07-24T03:55:54.924Z,5.72
2023-07-24T03:57:30.921Z,6.53
2023-07-24T03:59:03.307Z,7.13
2023-07-24T04:00:36.726Z,7.10
2023-07-24T04:02:10.924Z,6.10
2023-07-24T04:03:44.299Z,6.50
2023-07-24T04:05:17.015Z,6.70
2023-07-24T04:06:50.394Z,7.28
2023-07-24T04:08:23.818Z,25.83
2023-07-24T04:09:56.016Z,25.08
2023-07-24T04:11:29.489Z,7.38
2023-07-24T04:13:01.588Z,6.68
2023-07-24T04:14:35.155Z,6.53
2023-07-24T04:16:07.396Z,7.07
2023-07-24T04:17:43.002Z,7.10
2023-07-24T04:19:15.291Z,6.13
2023-07-24T04:20:49.066Z,6.40
2023-07-24T04:22:21.233Z,6.28
2023-07-24T04:23:54.452Z,9.77
2023-07-24T04:25:26.705Z,6.75
2023-07-24T04:27:00.399Z,7.22
2023-07-24T04:28:32.731Z,6.50
2023-07-24T04:30:06.682Z,5.53
2023-07-24T04:31:38.955Z,6.53
2023-07-24T04:33:14.004Z,6.57
2023-07-24T04:34:46.206Z,5.82
2023-07-24T04:36:20.724Z,5.90
2023-07-24T04:37:53.978Z,5.50
2023-07-24T04:39:26.440Z,5.00
2023-07-24T04:40:59.598Z,5.18
2023-07-24T04:42:33.509Z,5.00
2023-07-24T04:44:05.764Z,5.57
2023-07-24T04:45:39.442Z,6.20
2023-07-24T04:47:11.635Z,5.95
2023-07-24T04:48:46.520Z,6.10
2023-07-24T04:50:18.821Z,5.05
2023-07-24T04:51:52.701Z,6.07
2023-07-24T04:53:25.220Z,5.82
2023-07-24T04:54:58.703Z,6.15
2023-07-24T04:56:31.305Z,5.78
2023-07-24T04:58:05.427Z,4.85
2023-07-24T04:59:37.833Z,4.95
2023-07-24T05:01:11.156Z,6.13
2023-07-24T05:02:43.511Z,5.43
2023-07-24T05:04:18.667Z,5.63
2023-07-24T05:05:56.126Z,5.18
2023-07-24T05:07:29.489Z,5.32
2023-07-24T05:09:01.680Z,5.10
2023-07-24T05:10:37.704Z,5.65
2023-07-24T05:12:11.036Z,5.70
2023-07-24T05:13:44.225Z,5.10
2023-07-24T05:15:18.371Z,5.53
2023-07-24T09:32:51.035Z,2.97
2023-07-24T09:34:50.989Z,2.45
2023-07-24T09:36:46.316Z,2.90
2023-07-24T09:38:33.182Z,2.28
2023-07-24T09:40:19.028Z,2.75
2023-07-24T09:42:12.217Z,2.83
2023-07-24T09:44:00.726Z,3.13
2023-07-24T09:45:45.944Z,3.75
2023-07-24T09:47:55.935Z,3.17
2023-07-24T09:49:41.455Z,3.13
2023-07-24T09:51:34.341Z,2.20
2023-07-24T09:53:30.266Z,2.45
2023-07-24T09:55:19.983Z,2.28
2023-07-24T09:57:19.856Z,2.72
2023-07-24T09:59:09.287Z,2.88
2023-07-24T10:00:49.678Z,2.70
2023-07-24T10:02:37.212Z,2.83
2023-07-24T10:04:17.237Z,2.75
2023-07-24T10:06:06.623Z,3.47
2023-07-24T10:07:52.365Z,3.20
2023-07-24T10:09:40.031Z,2.90
2023-07-24T10:11:28.821Z,3.13
2023-07-24T10:13:18.538Z,3.40
2023-07-24T10:15:05.060Z,3.40
2023-07-24T10:16:51.100Z,3.22
2023-07-24T10:18:38.445Z,2.67
2023-07-24T10:20:32.039Z,2.90
2023-07-24T10:22:20.031Z,2.67
2023-07-24T10:24:06.439Z,3.13
2023-07-24T10:26:01.019Z,3.15
2023-07-24T10:27:51.086Z,3.25
2023-07-24T10:29:37.213Z,3.15
2023-07-24T10:31:34.377Z,2.60
2023-07-24T10:33:22.673Z,2.83
2023-07-24T10:35:09.239Z,2.70
2023-07-24T10:36:56.068Z,2.58
2023-07-24T10:38:45.336Z,2.10
2023-07-24T10:40:38.102Z,2.45
2023-07-24T10:42:26.125Z,2.65
2023-07-24T10:44:13.138Z,2.80
2023-07-24T10:46:07.124Z,2.35
2023-07-24T10:47:53.171Z,2.58
2023-07-24T10:49:47.064Z,2.75
2023-07-24T10:51:35.384Z,2.28
2023-07-24T10:53:23.341Z,2.80
2023-07-24T10:55:11.085Z,2.97
2023-07-24T10:57:08.364Z,2.60
2023-07-24T10:59:01.146Z,2.90
2023-07-24T11:00:55.198Z,3.30
2023-07-24T11:02:41.269Z,3.13
2023-07-24T11:04:41.179Z,3.58
2023-07-24T11:06:34.097Z,3.20
2023-07-24T11:08:18.822Z,3.38
2023-07-24T11:10:24.084Z,3.78
2023-07-24T11:12:19.350Z,4.57
2023-07-24T11:14:13.295Z,4.80
2023-07-24T11:15:59.113Z,4.53
2023-07-24T11:17:45.902Z,4.40
2023-07-24T11:19:39.165Z,4.70
2023-07-24T11:21:26.394Z,4.65
2023-07-24T11:23:19.341Z,4.35
2023-07-24T11:25:05.192Z,4.45
2023-07-24T11:26:53.313Z,4.85
2023-07-24T11:28:48.156Z,5.10
2023-07-24T11:30:34.413Z,5.13
2023-07-24T11:32:27.195Z,5.30
2023-07-24T11:34:14.416Z,4.78
2023-07-24T11:36:00.606Z,4.93
2023-07-24T11:37:47.142Z,4.70
2023-07-24T11:39:33.531Z,4.65
2023-07-24T11:41:14.350Z,4.97
2023-07-24T11:43:02.173Z,4.22
2023-07-24T11:44:42.608Z,4.25
2023-07-24T11:46:38.285Z,5.85
2023-07-24T11:48:24.528Z,4.88
2023-07-24T11:50:10.920Z,4.90
2023-07-24T11:51:59.170Z,5.38
2023-07-24T11:53:40.418Z,5.20
2023-07-24T11:55:41.258Z,5.80
2023-07-24T11:57:30.168Z,5.03
2023-07-24T11:59:31.147Z,5.20
2023-07-24T12:01:25.432Z,4.97
2023-07-24T12:03:11.539Z,5.53
2023-07-24T12:05:06.110Z,6.40
2023-07-24T12:06:54.290Z,6.30
2023-07-24T12:08:41.361Z,5.80
2023-07-24T12:10:42.152Z,5.85
2023-07-24T12:12:53.339Z,6.82
2023-07-24T12:14:55.160Z,5.68
2023-07-24T12:16:42.147Z,6.32
2023-07-24T12:18:35.352Z,6.70
2023-07-24T12:20:28.153Z,5.85
2023-07-24T12:22:13.377Z,6.13
2023-07-24T12:24:06.436Z,5.97
2023-07-24T12:26:00.188Z,6.80
2023-07-24T12:28:00.171Z,6.85
2023-07-24T12:30:01.529Z,6.45
2023-07-24T12:31:55.217Z,6.28
2023-07-24T12:33:41.392Z,6.70
2023-07-24T12:35:27.448Z,6.63
2023-07-24T12:37:20.265Z,5.95
2023-07-24T12:39:06.979Z,5.78
2023-07-24T12:40:54.751Z,5.78
2023-07-24T12:42:40.352Z,5.97
2023-07-24T12:44:27.290Z,6.38
2023-07-24T12:46:22.351Z,5.80
2023-07-24T12:48:09.100Z,7.22
2023-07-24T12:50:07.432Z,7.65
2023-07-24T12:51:55.537Z,6.30
2023-07-24T12:53:55.076Z,5.00
2023-07-24T12:55:42.131Z,5.25
2023-07-24T12:57:36.263Z,6.32
2023-07-24T12:59:29.221Z,5.07
2023-07-24T13:01:24.283Z,4.93
2023-07-24T13:03:24.553Z,5.68
2023-07-24T13:05:10.212Z,5.72
2023-07-24T13:07:03.269Z,5.28
2023-07-24T13:08:56.557Z,5.22
2023-07-24T13:10:36.460Z,5.97
2023-07-24T13:12:22.943Z,6.32
2023-07-24T13:14:08.536Z,6.22
2023-07-24T13:16:01.266Z,5.20
2023-07-24T13:17:57.304Z,6.65
2023-07-24T13:19:44.706Z,5.93
2023-07-24T13:21:30.301Z,6.35
2023-07-24T13:23:19.128Z,6.72
2023-07-24T13:25:12.433Z,5.82
2023-07-24T13:26:51.973Z,6.65
2023-07-24T13:28:37.459Z,7.05
2023-07-24T13:30:25.592Z,7.25
2023-07-24T13:32:25.306Z,6.38
2023-07-24T13:34:13.473Z,6.72
2023-07-24T13:36:05.353Z,5.80
2023-07-24T13:37:45.005Z,6.65
2023-07-24T13:39:32.752Z,5.53
2023-07-24T13:41:18.528Z,6.70
2023-07-24T13:43:06.293Z,6.13
2023-07-24T13:44:53.052Z,6.90
2023-07-24T13:46:40.651Z,7.95
2023-07-24T13:48:19.346Z,6.65
2023-07-24T13:50:14.297Z,5.90
2023-07-24T13:52:07.467Z,6.68
2023-07-24T13:53:55.111Z,6.72
2023-07-24T13:55:48.275Z,6.75
2023-07-24T13:57:41.599Z,6.93
2023-07-24T13:59:41.292Z,6.72
2023-07-24T14:01:27.438Z,7.78
2023-07-24T14:03:20.381Z,5.63
2023-07-24T14:05:16.253Z,5.85
2023-07-24T14:06:55.476Z,7.25
2023-07-24T14:08:48.516Z,6.93
2023-07-24T14:10:27.768Z,6.43
2023-07-24T14:12:14.047Z,7.13
2023-07-24T14:14:00.623Z,7.03
2023-07-24T14:15:40.560Z,6.63
2023-07-24T14:17:26.106Z,6.85
2023-07-24T14:19:12.664Z,6.43
2023-07-24T14:20:56.431Z,5.82
2023-07-24T14:22:48.331Z,5.45
2023-07-24T14:24:34.849Z,6.18
2023-07-24T14:26:14.183Z,6.93
2023-07-24T14:28:00.312Z,6.28
2023-07-24T14:29:39.770Z,6.85
2023-07-24T14:31:32.589Z,5.68
2023-07-24T14:33:32.370Z,6.00
2023-07-24T14:35:24.715Z,6.45
2023-07-24T14:37:12.490Z,6.15
2023-07-24T14:39:05.345Z,6.43
2023-07-24T14:40:51.687Z,6.78
2023-07-24T14:42:37.205Z,6.60
2023-07-24T14:44:24.311Z,7.22
2023-07-24T14:46:16.668Z,6.25
2023-07-24T14:47:56.438Z,6.65
2023-07-24T14:49:42.533Z,6.88
2023-07-24T14:51:27.469Z,7.28
2023-07-24T14:53:15.671Z,6.50
2023-07-24T14:55:08.350Z,7.03
2023-07-24T14:56:59.566Z,6.70
2023-07-24T14:58:54.619Z,6.80
2023-07-24T15:00:47.718Z,6.45
2023-07-24T15:02:34.507Z,6.25
2023-07-24T15:04:19.381Z,6.85
2023-07-24T15:06:07.645Z,6.72
2023-07-24T15:08:00.592Z,5.97
2023-07-24T15:09:55.327Z,6.65
2023-07-24T15:11:41.499Z,6.72
2023-07-24T15:13:34.509Z,6.93
2023-07-24T15:15:34.408Z,5.80
2023-07-24T15:17:27.645Z,6.20
2023-07-24T15:19:21.443Z,6.38
2023-07-24T15:21:08.363Z,5.97
2023-07-24T15:23:01.486Z,6.38
2023-07-24T15:24:56.412Z,6.45
2023-07-24T15:26:49.480Z,6.80
2023-07-24T15:28:35.957Z,7.47
2023-07-24T15:30:21.417Z,6.63
2023-07-24T15:32:14.410Z,6.60
2023-07-24T15:34:00.394Z,6.32
2023-07-24T15:35:46.632Z,6.03
2023-07-24T15:37:31.392Z,6.10
2023-07-24T15:39:18.340Z,7.07
2023-07-24T15:41:06.572Z,6.25
2023-07-24T15:42:52.350Z,6.30
2023-07-24T15:44:32.423Z,5.63
2023-07-24T15:46:25.506Z,6.22
2023-07-24T15:48:22.944Z,6.63
2023-07-24T15:50:13.919Z,5.68
2023-07-24T15:51:52.459Z,6.10
2023-07-24T15:53:39.435Z,6.28
2023-07-24T15:55:24.429Z,6.65
2023-07-24T15:57:12.902Z,5.53
2023-07-24T15:59:06.468Z,6.15
2023-07-24T16:00:46.348Z,6.10
2023-07-24T16:02:32.724Z,6.30
2023-07-24T16:04:20.357Z,6.28
2023-07-24T16:06:23.657Z,5.97
2023-07-24T16:08:17.372Z,6.18
2023-07-24T16:10:03.667Z,5.75
2023-07-24T16:11:50.551Z,6.13
2023-07-24T16:13:37.635Z,6.10
2023-07-24T16:17:12.587Z,5.78
2023-07-24T16:19:19.641Z,6.13
2023-07-24T16:21:12.414Z,6.22
2023-07-24T16:23:05.649Z,6.20
2023-07-24T16:24:58.445Z,6.40
2023-07-24T16:26:44.649Z,6.20
2023-07-24T16:28:31.610Z,5.80
2023-07-24T16:30:21.856Z,6.25
2023-07-24T16:32:16.437Z,6.05
2023-07-24T16:34:09.624Z,6.78
2023-07-24T16:35:55.487Z,4.97
2023-07-24T16:37:55.528Z,6.65
2023-07-24T16:39:48.549Z,6.72
2023-07-24T16:41:40.459Z,6.80
2023-07-24T16:43:40.486Z,5.97
2023-07-24T16:45:36.707Z,6.80
2023-07-24T16:47:24.503Z,6.47
2023-07-24T16:49:06.176Z,6.70
2023-07-24T16:50:51.824Z,6.13
2023-07-24T16:52:37.712Z,6.90
2023-07-24T16:54:31.475Z,6.70
2023-07-24T16:56:16.877Z,6.32
2023-07-24T16:58:09.482Z,5.72
2023-07-24T16:59:56.103Z,6.95
2023-07-24T17:01:43.935Z,6.32
2023-07-24T17:03:28.599Z,6.13
2023-07-24T17:05:22.536Z,6.10
2023-07-24T17:07:22.775Z,6.55
2023-07-24T17:09:09.220Z,5.53
2023-07-24T17:11:03.514Z,6.05
2023-07-24T17:13:03.577Z,6.15
2023-07-24T17:14:56.573Z,6.72
2023-07-24T17:16:42.765Z,7.07
2023-07-24T17:18:37.617Z,7.07
2023-07-24T17:20:24.533Z,6.80
2023-07-24T17:22:24.495Z,7.18
2023-07-24T17:24:11.630Z,6.82
2023-07-24T17:26:04.565Z,6.57
2023-07-24T17:28:03.498Z,6.40
2023-07-24T17:29:56.774Z,6.25
2023-07-24T17:31:44.099Z,6.43
2023-07-24T17:33:45.541Z,7.53
2023-07-24T17:35:34.066Z,9.02
2023-07-24T17:37:36.579Z,8.88
2023-07-24T17:39:24.490Z,8.80
2023-07-24T17:41:05.498Z,7.47
2023-07-24T17:42:58.504Z,7.95
2023-07-24T17:44:52.565Z,9.15
2023-07-24T17:46:37.804Z,12.32
2023-07-24T17:48:24.357Z,11.73
2023-07-24T17:50:20.553Z,12.68
2023-07-24T17:52:13.745Z,12.40
2023-07-24T17:53:59.551Z,8.98
2023-07-24T17:55:53.595Z,8.68
2023-07-24T17:57:40.626Z,7.45
2023-07-24T17:59:32.486Z,6.70
2023-07-24T18:01:19.556Z,6.80
2023-07-24T18:03:06.208Z,6.60
2023-07-24T18:04:46.279Z,7.03
2023-07-24T18:06:33.608Z,6.68
2023-07-24T18:08:26.707Z,7.13
2023-07-24T18:10:12.571Z,7.05
2023-07-24T18:11:59.793Z,7.45
2023-07-24T18:13:53.874Z,7.28
2023-07-24T18:15:40.532Z,6.90
2023-07-24T18:17:32.615Z,7.05
2023-07-24T18:19:25.823Z,6.95
2023-07-24T18:21:08.538Z,6.35
2023-07-24T18:22:55.895Z,6.10
2023-07-24T18:24:42.851Z,7.70
2023-07-24T18:26:35.590Z,7.18
2023-07-24T18:28:21.802Z,7.45
2023-07-24T18:30:06.759Z,7.75
2023-07-24T18:31:52.830Z,7.20
2023-07-24T18:33:52.541Z,6.78
2023-07-24T18:35:44.805Z,6.78
2023-07-24T18:37:30.787Z,6.18
2023-07-24T18:39:24.614Z,6.05
2023-07-24T18:41:12.102Z,7.68
2023-07-24T18:43:03.554Z,6.80
2023-07-24T18:44:49.798Z,6.82
2023-07-24T18:46:42.802Z,6.90
2023-07-24T18:48:35.659Z,7.30
2023-07-24T18:50:15.427Z,7.43
2023-07-24T18:52:02.146Z,7.00
2023-07-24T18:53:47.600Z,7.28
2023-07-24T18:55:34.649Z,6.97
2023-07-24T18:57:28.817Z,6.90
2023-07-24T18:59:22.576Z,8.05
2023-07-24T19:01:15.705Z,7.35
2023-07-24T19:03:03.010Z,8.00
2023-07-24T19:04:54.563Z,7.25
2023-07-24T19:06:41.646Z,8.40
2023-07-24T19:08:35.899Z,7.57
2023-07-24T19:10:14.395Z,7.18
2023-07-24T19:12:09.646Z,7.07
2023-07-24T19:14:09.846Z,7.28
2023-07-24T19:15:56.408Z,8.38
2023-07-24T19:17:50.629Z,7.47
2023-07-24T19:19:39.268Z,8.05
2023-07-24T19:21:30.908Z,6.35
2023-07-24T19:23:30.577Z,7.50
2023-07-24T19:25:23.668Z,7.93
2023-07-24T19:27:11.872Z,7.25
2023-07-24T19:28:56.706Z,6.85
2023-07-24T19:30:49.757Z,8.13
2023-07-24T19:32:45.209Z,7.88
2023-07-24T19:34:38.640Z,7.50
2023-07-24T19:36:24.987Z,7.68
2023-07-24T19:38:12.024Z,7.28
2023-07-24T19:39:58.700Z,7.63
2023-07-24T19:41:51.805Z,7.28
2023-07-24T19:43:33.358Z,7.20
2023-07-24T19:45:17.909Z,7.80
2023-07-24T19:47:03.673Z,7.10
2023-07-24T19:48:57.701Z,8.00
2023-07-24T19:50:42.873Z,7.43
2023-07-24T19:52:38.860Z,7.00
2023-07-24T19:54:32.634Z,8.10
2023-07-24T19:56:25.644Z,6.90
2023-07-24T19:58:26.502Z,7.90
2023-07-24T20:00:13.277Z,7.53
2023-07-24T20:01:57.696Z,6.97
2023-07-24T20:03:38.137Z,6.82
2023-07-24T20:05:30.647Z,6.43
2023-07-24T20:07:16.657Z,7.32
2023-07-24T20:09:02.498Z,7.18
2023-07-24T20:10:57.721Z,6.68
2023-07-24T20:12:50.957Z,7.55
2023-07-24T20:14:37.231Z,7.75
2023-07-24T20:16:30.802Z,7.80
2023-07-24T20:18:24.064Z,7.70
2023-07-24T20:20:16.643Z,7.45
2023-07-24T20:22:02.981Z,7.40
2023-07-24T20:23:43.127Z,8.70
2023-07-24T20:25:27.751Z,7.70
2023-07-24T20:27:14.887Z,7.05
2023-07-24T20:29:06.921Z,7.97
2023-07-24T20:30:53.726Z,7.60
2023-07-24T20:32:54.726Z,8.00
2023-07-24T20:34:41.734Z,7.85
2023-07-24T20:36:33.679Z,7.80
2023-07-24T20:38:30.988Z,6.78
2023-07-24T20:40:17.954Z,7.13
2023-07-24T20:42:04.660Z,7.32
2023-07-24T20:43:50.979Z,7.85
2023-07-24T20:45:37.060Z,8.00
2023-07-24T20:47:16.487Z,7.82
2023-07-24T20:49:11.655Z,7.32
2023-07-24T20:50:59.029Z,7.68
2023-07-24T20:52:43.959Z,7.32
2023-07-24T20:54:36.756Z,8.00
2023-07-24T20:56:15.992Z,7.43
2023-07-24T20:58:01.775Z,7.15
2023-07-24T20:59:48.441Z,7.85
2023-07-24T21:01:42.185Z,7.63
2023-07-24T21:03:27.738Z,7.78
2023-07-24T21:05:16.965Z,7.38
2023-07-24T21:07:03.008Z,7.70
2023-07-24T21:08:55.769Z,7.72
2023-07-24T21:10:55.700Z,7.03
2023-07-24T21:12:43.888Z,7.75
2023-07-24T21:14:35.780Z,8.02
2023-07-24T21:16:16.179Z,7.15
2023-07-24T21:18:08.846Z,7.57
2023-07-24T21:20:01.745Z,8.15
2023-07-24T21:21:48.930Z,7.47
2023-07-24T21:23:41.888Z,7.72
2023-07-24T21:25:26.926Z,8.05
2023-07-24T21:27:13.772Z,7.72
2023-07-24T21:28:59.771Z,7.25
2023-07-24T21:30:52.813Z,7.38
2023-07-24T21:32:44.799Z,7.82
2023-07-24T21:34:45.988Z,7.13
2023-07-24T21:36:32.547Z,7.68
2023-07-24T21:38:27.790Z,7.82
2023-07-24T21:40:13.666Z,7.68
2023-07-24T21:42:06.809Z,8.25
2023-07-24T21:43:59.739Z,8.00
2023-07-24T21:45:45.963Z,7.15
2023-07-24T21:47:31.516Z,7.38
2023-07-24T21:49:18.932Z,8.18
2023-07-24T21:51:05.173Z,8.55
2023-07-24T21:52:56.750Z,8.63
2023-07-24T21:54:44.754Z,7.85
2023-07-24T21:56:37.918Z,7.97
2023-07-24T21:58:23.964Z,8.27
2023-07-24T22:00:04.605Z,7.50
2023-07-24T22:01:55.176Z,7.90
2023-07-24T22:03:39.981Z,7.32
2023-07-24T22:05:26.899Z,7.32
2023-07-24T22:07:13.948Z,7.65
2023-07-24T22:08:54.045Z,7.47
2023-07-24T22:10:41.196Z,7.72
2023-07-24T22:12:26.901Z,7.32
2023-07-24T22:14:19.811Z,8.13
2023-07-24T22:15:59.820Z,6.88
2023-07-24T22:17:47.314Z,7.78
2023-07-24T22:19:32.778Z,7.22
2023-07-24T22:21:17.815Z,7.50
2023-07-24T22:23:04.245Z,8.40
2023-07-24T22:24:57.925Z,7.15
2023-07-24T22:26:52.854Z,8.15
2023-07-24T22:28:47.016Z,8.48
2023-07-24T22:30:26.025Z,6.93
2023-07-24T22:32:12.743Z,7.63
2023-07-24T22:34:06.113Z,7.90
2023-07-24T22:36:04.826Z,7.53
2023-07-24T22:37:57.850Z,7.75
2023-07-24T22:39:37.129Z,7.70
2023-07-24T22:41:30.131Z,7.70
2023-07-24T22:43:16.971Z,7.95
2023-07-24T22:45:09.963Z,8.57
2023-07-24T22:47:02.932Z,7.35
2023-07-24T22:48:43.073Z,8.60
2023-07-24T22:50:36.051Z,8.30
2023-07-24T22:52:21.788Z,7.82
2023-07-24T22:54:08.604Z,8.07
2023-07-24T22:56:01.981Z,8.23
2023-07-24T22:57:48.677Z,9.02
2023-07-24T22:59:43.884Z,8.65
2023-07-24T23:01:27.123Z,7.95
2023-07-24T23:03:13.084Z,9.00
2023-07-24T23:04:59.843Z,8.57
2023-07-24T23:06:45.008Z,8.80
2023-07-24T23:08:31.046Z,8.85
2023-07-24T23:10:10.504Z,8.65
2023-07-24T23:11:56.949Z,9.23
2023-07-24T23:13:37.066Z,9.40
2023-07-24T23:15:30.898Z,8.32
2023-07-24T23:17:17.241Z,8.95
2023-07-24T23:19:09.845Z,8.98
2023-07-24T23:20:56.909Z,8.43
2023-07-24T23:22:50.152Z,9.32
2023-07-24T23:24:36.101Z,9.18
2023-07-24T23:26:22.922Z,8.48
2023-07-24T23:28:09.019Z,8.57
2023-07-24T23:29:55.030Z,8.55
2023-07-24T23:31:35.346Z,8.98
2023-07-24T23:33:28.175Z,8.77
2023-07-24T23:35:20.880Z,9.38
2023-07-24T23:37:06.862Z,8.60
2023-07-24T23:38:53.890Z,9.38
2023-07-24T23:40:45.873Z,9.77
2023-07-24T23:42:32.933Z,9.52
2023-07-24T23:44:19.178Z,9.07
2023-07-24T23:46:17.970Z,8.95
2023-07-24T23:48:05.932Z,10.15
2023-07-24T23:50:06.006Z,9.45
2023-07-24T23:51:52.599Z,10.20
2023-07-24T23:53:45.891Z,10.80
2023-07-24T23:55:32.829Z,9.80
2023-07-24T23:57:25.894Z,9.70
2023-07-24T23:59:25.900Z,9.82
